Time;durP1;ratioP1;P1;durP2;ratioP2;P2;SDS_P1;SDS_P2;PMS_P1;PMS_P2;Temp;Humidity;BMP_temperature;BMP_pressure;BME280_temperature;BME280_humidity;BME280_pressure;Samples;Min_cycle;Max_cycle;Signal;HPM_P1;HPM_P2
2024/02/06 05:02:28;;;;;;;22.73;2.60;;;8.70;97.30;;;;;;5222182;22;20489;-68
2024/02/06 05:04:54;;;;;;;1.70;1.40;;;8.70;97.30;;;;;;5028385;28;20442;-67
2024/02/06 05:07:19;;;;;;;1.00;0.90;;;8.70;97.30;;;;;;5043066;28;20190;-67
2024/02/06 05:09:46;;;;;;;7.97;2.30;;;8.70;97.30;;;;;;5038700;28;20675;-68
2024/02/06 05:12:11;;;;;;;1.47;1.47;;;8.70;97.30;;;;;;5031266;28;20196;-67
2024/02/06 05:14:37;;;;;;;1.17;0.90;;;8.60;97.30;;;;;;5037533;28;20430;-67
2024/02/06 05:17:03;;;;;;;1.10;1.00;;;8.60;97.30;;;;;;5050049;28;20187;-71
2024/02/06 05:19:30;;;;;;;1.37;1.20;;;8.60;97.30;;;;;;5032458;28;20259;-68
2024/02/06 05:21:59;;;;;;;1.30;1.20;;;8.60;97.30;;;;;;5032137;28;20521;-67
2024/02/06 05:24:26;;;;;;;1.73;1.63;;;8.60;97.30;;;;;;5033211;28;20430;-69
2024/02/06 05:26:52;;;;;;;1.33;1.23;;;8.60;97.30;;;;;;5041243;28;20426;-69
2024/02/06 05:29:17;;;;;;;1.00;0.90;;;8.60;97.30;;;;;;5032981;28;20554;-68
2024/02/06 05:31:43;;;;;;;1.53;1.37;;;8.60;97.30;;;;;;5032089;28;20196;-68
2024/02/06 05:34:08;;;;;;;1.53;1.40;;;8.60;97.30;;;;;;5032401;28;20184;-69
2024/02/06 05:36:34;;;;;;;1.93;1.37;;;8.60;97.30;;;;;;5050050;28;20191;-69
2024/02/06 05:39:02;;;;;;;1.23;0.90;;;8.60;97.30;;;;;;5031715;28;20195;-69
2024/02/06 05:41:27;;;;;;;20.83;1.53;;;8.60;97.30;;;;;;5031660;28;20560;-70
2024/02/06 05:43:54;;;;;;;1.73;1.63;;;8.60;97.30;;;;;;5032283;28;20513;-70
2024/02/06 05:46:20;;;;;;;1.67;1.57;;;8.60;97.30;;;;;;5049700;28;20270;-68
2024/02/06 05:48:45;;;;;;;2.20;1.77;;;8.70;97.30;;;;;;5032007;28;20516;-68
2024/02/06 05:51:11;;;;;;;19.43;2.20;;;8.70;97.30;;;;;;5033504;28;20462;-69
2024/02/06 05:53:37;;;;;;;0.90;0.80;;;8.70;97.30;;;;;;5049544;28;20184;-68
2024/02/06 05:56:07;;;;;;;4.70;1.40;;;8.70;97.30;;;;;;5031723;28;20200;-68
2024/02/06 05:58:33;;;;;;;2.63;2.43;;;8.70;97.30;;;;;;5049488;28;20422;-69
2024/02/06 06:00:59;;;;;;;1.50;1.40;;;8.70;97.30;;;;;;5030850;28;20494;-69
2024/02/06 06:03:24;;;;;;;1.23;1.13;;;8.70;97.30;;;;;;5014611;28;20540;-70
2024/02/06 06:05:50;;;;;;;2.03;1.90;;;8.70;97.30;;;;;;5049231;28;20711;-69
2024/02/06 06:08:16;;;;;;;1.00;0.90;;;8.70;97.30;;;;;;5031433;28;20176;-70
2024/02/06 06:10:41;;;;;;;2.10;1.27;;;8.80;97.30;;;;;;5031235;28;20230;-71
2024/02/06 06:13:07;;;;;;;7.90;1.33;;;8.80;97.30;;;;;;5031356;28;20666;-70
2024/02/06 06:15:32;;;;;;;4.07;1.40;;;8.80;97.30;;;;;;5030753;28;20186;-68
2024/02/06 06:17:58;;;;;;;1.13;0.90;;;8.80;97.30;;;;;;5030738;28;20176;-70
2024/02/06 06:20:23;;;;;;;1.10;1.00;;;8.80;97.30;;;;;;5036653;28;20199;-69
2024/02/06 06:22:50;;;;;;;1.03;0.93;;;8.80;97.30;;;;;;5030332;28;20183;-70
2024/02/06 06:25:15;;;;;;;1.43;1.33;;;8.80;97.30;;;;;;5030372;28;20203;-72
2024/02/06 06:27:42;;;;;;;5.10;1.00;;;8.80;97.30;;;;;;5034419;28;20426;-70
2024/02/06 06:30:09;;;;;;;1.20;1.10;;;8.90;97.30;;;;;;5031281;28;20278;-69
2024/02/06 06:32:35;;;;;;;1.00;0.90;;;8.90;97.30;;;;;;5031007;28;20437;-71
2024/02/06 06:35:04;;;;;;;1.23;1.13;;;8.90;97.30;;;;;;5031782;28;20426;-71
2024/02/06 06:37:30;;;;;;;3.27;1.53;;;8.90;97.30;;;;;;5048543;28;20504;-69
2024/02/06 06:39:56;;;;;;;2.87;1.80;;;8.90;97.30;;;;;;5048575;28;20464;-68
2024/02/06 06:42:22;;;;;;;1.77;1.67;;;8.90;97.30;;;;;;5048001;28;20695;-72
2024/02/06 06:44:48;;;;;;;1.10;1.00;;;8.90;97.30;;;;;;5030149;28;20466;-71
2024/02/06 06:47:14;;;;;;;1.00;0.90;;;8.90;97.30;;;;;;5035184;28;20930;-71
2024/02/06 06:49:40;;;;;;;0.83;0.73;;;8.90;97.30;;;;;;5031473;28;20183;-69
2024/02/06 06:52:07;;;;;;;1.10;1.00;;;9.00;97.30;;;;;;5029176;28;20821;-70
2024/02/06 06:54:34;;;;;;;1.07;0.97;;;9.00;97.30;;;;;;5027453;28;20184;-70
2024/02/06 06:57:03;;;;;;;1.00;0.90;;;9.00;97.30;;;;;;5048329;28;20422;-71
2024/02/06 06:59:30;;;;;;;2.20;1.03;;;9.00;97.30;;;;;;5052550;28;20533;-69
2024/02/06 07:01:57;;;;;;;1.20;1.10;;;9.00;97.30;;;;;;5030208;28;20881;-70
2024/02/06 07:04:23;;;;;;;0.80;0.70;;;9.00;97.30;;;;;;5035289;28;20426;-70
2024/02/06 07:06:48;;;;;;;1.23;1.13;;;9.00;97.30;;;;;;5048042;28;20791;-70
2024/02/06 07:09:16;;;;;;;0.90;0.80;;;9.10;97.30;;;;;;5048272;28;20626;-70
2024/02/06 07:11:43;;;;;;;4.13;2.67;;;9.10;97.30;;;;;;5034184;28;20199;-71
2024/02/06 07:14:09;;;;;;;2.97;1.83;;;9.00;97.30;;;;;;5029662;28;20422;-70
2024/02/06 07:16:34;;;;;;;1.23;1.13;;;9.00;97.30;;;;;;5048356;28;20425;-71
2024/02/06 07:19:00;;;;;;;1.00;0.90;;;9.10;97.30;;;;;;5033002;28;20199;-71
2024/02/06 07:21:26;;;;;;;1.97;1.13;;;9.10;97.30;;;;;;5026082;28;20199;-71
2024/02/06 07:23:52;;;;;;;1.43;1.33;;;9.10;97.30;;;;;;5029735;28;20226;-71
2024/02/06 07:26:18;;;;;;;0.90;0.80;;;9.10;97.30;;;;;;5054275;28;20944;-72
2024/02/06 07:28:43;;;;;;;1.13;1.03;;;9.10;97.30;;;;;;5039044;28;20421;-72
2024/02/06 07:31:09;;;;;;;0.90;0.80;;;9.10;97.30;;;;;;5029430;28;20203;-69
2024/02/06 07:33:35;;;;;;;1.33;1.10;;;9.20;97.30;;;;;;5047163;28;20188;-71
2024/02/06 07:36:00;;;;;;;1.00;0.90;;;9.20;97.30;;;;;;5029473;28;20433;-71
2024/02/06 07:38:26;;;;;;;0.80;0.70;;;9.20;97.30;;;;;;5047190;28;20593;-67
2024/02/06 07:40:51;;;;;;;0.90;0.80;;;9.20;97.30;;;;;;5029434;28;20695;-71
2024/02/06 07:43:17;;;;;;;0.90;0.80;;;9.30;97.30;;;;;;5043645;28;20238;-69
2024/02/06 07:45:42;;;;;;;1.13;1.03;;;9.30;97.30;;;;;;5044515;28;20172;-67
2024/02/06 07:48:08;;;;;;;1.20;1.10;;;9.30;97.30;;;;;;5029089;28;20187;-67
2024/02/06 07:50:33;;;;;;;1.57;1.47;;;9.30;97.30;;;;;;5041051;28;20204;-69
2024/02/06 07:52:59;;;;;;;2.10;1.10;;;9.30;97.30;;;;;;5029013;28;20194;-67
2024/02/06 07:55:25;;;;;;;1.00;0.90;;;9.30;97.30;;;;;;5029265;28;20257;-70
2024/02/06 07:57:50;;;;;;;1.97;1.60;;;9.30;97.30;;;;;;5029472;28;20434;-67
2024/02/06 08:00:17;;;;;;;0.90;0.80;;;9.30;97.30;;;;;;5033427;28;20208;-68
2024/02/06 08:02:43;;;;;;;0.80;0.70;;;9.40;97.30;;;;;;5048075;28;20462;-70
2024/02/06 08:05:08;;;;;;;1.10;1.00;;;9.40;97.30;;;;;;5033231;28;20453;-69
2024/02/06 08:07:34;;;;;;;4.73;1.03;;;9.40;97.30;;;;;;5019700;28;20184;-68
2024/02/06 08:09:59;;;;;;;2.27;1.20;;;9.40;97.30;;;;;;5026635;28;20181;-68
2024/02/06 08:12:27;;;;;;;1.33;1.23;;;9.40;97.30;;;;;;5035646;28;20726;-68
2024/02/06 08:14:52;;;;;;;1.83;1.73;;;9.40;97.30;;;;;;5048543;28;20250;-69
2024/02/06 08:17:21;;;;;;;1.40;1.30;;;9.40;97.30;;;;;;5029848;28;20433;-69
2024/02/06 08:19:46;;;;;;;1.57;1.50;;;9.40;97.30;;;;;;5046409;28;20210;-68
2024/02/06 08:22:12;;;;;;;2.07;1.93;;;9.40;97.30;;;;;;5041741;28;20528;-69
2024/02/06 08:24:37;;;;;;;1.10;0.93;;;9.40;97.30;;;;;;5029567;28;20250;-68
2024/02/06 08:27:04;;;;;;;1.00;1.00;;;9.40;97.30;;;;;;5030151;28;20180;-68
2024/02/06 08:29:30;;;;;;;1.53;1.47;;;9.40;97.30;;;;;;5030370;28;20250;-70
2024/02/06 08:31:56;;;;;;;1.27;1.00;;;9.40;97.30;;;;;;5026967;28;20479;-67
2024/02/06 08:34:22;;;;;;;1.00;0.90;;;9.50;97.30;;;;;;5043183;28;20991;-68
2024/02/06 08:36:47;;;;;;;1.67;1.47;;;9.50;97.30;;;;;;5032185;28;20492;-68
2024/02/06 08:39:15;;;;;;;1.63;1.17;;;9.60;97.30;;;;;;5036090;28;20838;-66
2024/02/06 08:41:40;;;;;;;1.03;0.93;;;9.60;97.30;;;;;;5022943;28;20696;-67
2024/02/06 08:44:08;;;;;;;2.07;1.77;;;9.60;97.30;;;;;;5037570;28;20418;-67
2024/02/06 08:46:34;;;;;;;0.90;0.80;;;9.60;97.30;;;;;;5038895;28;20275;-66
2024/02/06 08:48:59;;;;;;;7.13;1.83;;;9.70;97.30;;;;;;5027556;28;20450;-66
2024/02/06 08:51:25;;;;;;;0.97;0.90;;;9.70;97.30;;;;;;5036258;28;20484;-66
2024/02/06 08:53:51;;;;;;;1.93;1.83;;;9.70;97.30;;;;;;5034566;28;20274;-67
2024/02/06 08:56:18;;;;;;;1.03;0.93;;;9.70;97.30;;;;;;5045304;28;20208;-65
2024/02/06 08:58:43;;;;;;;1.07;1.03;;;9.70;97.30;;;;;;5022559;28;20471;-66
2024/02/06 09:01:09;;;;;;;0.87;0.80;;;9.70;97.30;;;;;;5032827;28;20238;-66
2024/02/06 09:03:34;;;;;;;1.00;0.93;;;9.70;97.30;;;;;;5041025;28;20401;-65
2024/02/06 09:06:00;;;;;;;1.07;0.97;;;9.70;97.30;;;;;;5050465;28;20176;-64
2024/02/06 09:08:26;;;;;;;0.90;0.80;;;9.70;97.30;;;;;;5041091;28;20651;-65
2024/02/06 09:10:51;;;;;;;0.90;0.80;;;9.70;97.30;;;;;;5040228;28;20632;-65
2024/02/06 09:13:17;;;;;;;1.00;0.90;;;9.70;97.30;;;;;;5051214;28;20414;-66
2024/02/06 09:15:42;;;;;;;11.83;1.67;;;9.70;97.30;;;;;;5035867;28;20176;-66
2024/02/06 09:18:08;;;;;;;1.37;1.27;;;9.70;97.30;;;;;;5051569;28;20188;-65
2024/02/06 09:20:33;;;;;;;0.90;0.90;;;9.70;97.30;;;;;;5051292;28;20216;-64
2024/02/06 09:22:59;;;;;;;2.83;2.00;;;9.70;97.30;;;;;;5059121;28;20180;-65
2024/02/06 09:25:24;;;;;;;0.80;0.70;;;9.70;97.30;;;;;;5050961;28;20179;-65
2024/02/06 09:27:50;;;;;;;3.33;1.63;;;9.70;97.30;;;;;;5052640;28;20682;-65
2024/02/06 09:30:17;;;;;;;1.73;1.63;;;9.70;97.30;;;;;;5057326;28;20371;-65
2024/02/06 09:32:43;;;;;;;0.90;0.80;;;9.80;97.30;;;;;;5041270;28;20651;-64
2024/02/06 09:35:08;;;;;;;2.43;1.07;;;9.80;97.30;;;;;;5051043;28;20438;-65
2024/02/06 09:37:34;;;;;;;1.20;1.10;;;9.80;97.30;;;;;;5024772;28;20422;-62
2024/02/06 09:40:00;;;;;;;2.73;2.53;;;9.80;97.30;;;;;;5040966;28;20222;-64
2024/02/06 09:42:26;;;;;;;1.03;0.93;;;9.80;97.30;;;;;;5036600;28;20200;-63
2024/02/06 09:44:52;;;;;;;1.63;1.10;;;9.80;97.30;;;;;;5050635;28;20180;-64
2024/02/06 09:47:18;;;;;;;1.13;1.07;;;9.80;97.30;;;;;;5050720;28;20410;-64
2024/02/06 09:49:44;;;;;;;1.97;1.87;;;9.90;97.30;;;;;;5050618;28;20186;-65
2024/02/06 09:52:12;;;;;;;1.20;1.10;;;9.90;97.30;;;;;;5037794;28;20566;-63
2024/02/06 09:54:43;;;;;;;0.70;0.70;;;10.00;97.30;;;;;;5040696;28;20435;-64
2024/02/06 09:57:09;;;;;;;0.90;0.80;;;10.00;97.30;;;;;;5033406;28;20429;-65
2024/02/06 09:59:36;;;;;;;1.20;1.10;;;10.00;97.30;;;;;;5050100;28;20469;-69
2024/02/06 10:02:03;;;;;;;1.37;1.27;;;10.00;97.30;;;;;;5039886;28;20846;-66
2024/02/06 10:04:32;;;;;;;1.00;0.90;;;10.10;97.30;;;;;;5050550;28;20887;-66
2024/02/06 10:06:59;;;;;;;1.17;1.07;;;10.10;97.30;;;;;;5034902;28;20485;-67
2024/02/06 10:09:29;;;;;;;1.40;1.30;;;10.10;97.30;;;;;;5037521;28;20436;-66
2024/02/06 10:11:57;;;;;;;1.80;1.77;;;10.20;97.30;;;;;;5049993;28;20832;-65
2024/02/06 10:14:22;;;;;;;1.83;1.40;;;10.30;97.30;;;;;;5050181;28;20510;-66
2024/02/06 10:16:48;;;;;;;1.40;1.30;;;10.30;97.30;;;;;;5032150;28;20513;-64
2024/02/06 10:19:13;;;;;;;1.37;1.07;;;10.40;97.30;;;;;;5030657;28;20202;-66
2024/02/06 10:21:40;;;;;;;1.00;0.90;;;10.40;97.30;;;;;;5049398;28;20750;-65
2024/02/06 10:24:06;;;;;;;0.93;0.83;;;10.40;97.30;;;;;;5042025;28;20202;-68
2024/02/06 10:26:32;;;;;;;0.90;0.80;;;10.50;97.30;;;;;;5035805;28;20937;-65
2024/02/06 10:29:11;;;;;;;0.97;0.87;;;10.40;97.30;;;;;;5038958;28;20230;-64
2024/02/06 10:31:37;;;;;;;0.90;0.80;;;10.40;97.30;;;;;;5031841;28;20446;-66
2024/02/06 10:34:11;;;;;;;0.80;0.70;;;10.40;97.30;;;;;;5049259;28;20483;-65
2024/02/06 10:36:36;;;;;;;1.10;1.00;;;10.40;97.30;;;;;;5057161;28;20445;-66
2024/02/06 10:39:03;;;;;;;2.00;1.20;;;10.50;97.30;;;;;;5037479;28;20470;-65
2024/02/06 10:41:29;;;;;;;1.10;1.00;;;10.50;97.30;;;;;;5053852;28;20199;-66
2024/02/06 10:43:55;;;;;;;1.40;1.30;;;10.50;97.30;;;;;;5030465;28;20418;-67
2024/02/06 10:46:21;;;;;;;0.90;0.80;;;10.60;97.30;;;;;;5030952;28;20172;-65
2024/02/06 10:48:47;;;;;;;1.10;0.87;;;10.60;97.30;;;;;;5057561;28;20266;-66
2024/02/06 10:51:24;;;;;;;1.00;0.90;;;10.60;97.30;;;;;;5031053;28;20581;-64
2024/02/06 10:53:49;;;;;;;1.23;1.17;;;10.70;97.30;;;;;;5049225;28;20205;-65
2024/02/06 10:56:18;;;;;;;1.17;1.07;;;10.70;97.30;;;;;;5049366;28;20505;-66
2024/02/06 10:58:54;;;;;;;1.00;0.90;;;10.70;97.30;;;;;;5039317;28;20187;-65
2024/02/06 11:01:21;;;;;;;0.90;0.80;;;10.70;97.30;;;;;;5030582;28;20914;-66
2024/02/06 11:03:56;;;;;;;1.10;1.00;;;10.70;97.30;;;;;;5048196;28;20505;-64
2024/02/06 11:06:27;;;;;;;2.40;1.57;;;10.70;97.30;;;;;;5032981;28;20953;-66
2024/02/06 11:09:01;;;;;;;1.00;0.90;;;10.70;97.30;;;;;;5029899;28;20446;-65
2024/02/06 11:11:27;;;;;;;1.37;1.27;;;10.80;97.30;;;;;;5047613;28;20453;-66
2024/02/06 11:13:53;;;;;;;0.93;0.83;;;10.70;97.30;;;;;;5029832;28;20458;-65
2024/02/06 11:16:21;;;;;;;1.00;0.90;;;10.70;97.30;;;;;;5030519;28;20419;-65
2024/02/06 11:18:53;;;;;;;1.17;1.07;;;10.70;97.30;;;;;;5029135;28;20452;-65
2024/02/06 11:21:23;;;;;;;2.23;1.40;;;10.70;97.30;;;;;;5048194;28;20430;-66
2024/02/06 11:23:50;;;;;;;1.43;1.00;;;10.70;97.30;;;;;;5056363;28;20414;-66
2024/02/06 11:26:18;;;;;;;0.90;0.80;;;10.70;97.30;;;;;;5032206;28;21488;-67
2024/02/06 11:28:45;;;;;;;1.10;1.00;;;10.80;97.30;;;;;;5049499;28;20414;-66
2024/02/06 11:31:11;;;;;;;1.37;1.27;;;10.80;97.30;;;;;;5047403;28;20480;-63
2024/02/06 11:33:37;;;;;;;1.10;1.00;;;10.80;97.30;;;;;;5045282;23;20510;-86
2024/02/06 11:36:14;;;;;;;2.20;2.00;;;10.80;97.30;;;;;;5035459;28;20415;-86
2024/02/06 11:38:39;;;;;;;3.80;1.20;;;10.80;97.30;;;;;;5035310;28;20402;-85
2024/02/06 11:41:13;;;;;;;0.90;0.83;;;10.90;97.30;;;;;;5035120;28;20450;-86
2024/02/06 11:43:39;;;;;;;15.80;3.33;;;11.00;97.30;;;;;;5051447;28;20294;-87
2024/02/06 11:46:04;;;;;;;2.20;2.00;;;11.00;97.30;;;;;;5060427;28;20413;-86
2024/02/06 11:48:30;;;;;;;1.00;0.90;;;11.00;97.30;;;;;;5059946;28;20168;-86
2024/02/06 11:50:55;;;;;;;1.53;1.20;;;11.00;97.30;;;;;;5068518;28;20179;-85
2024/02/06 11:53:28;;;;;;;0.80;0.70;;;10.90;97.30;;;;;;5061408;28;20744;-86
2024/02/06 11:55:57;;;;;;;2.00;1.90;;;10.80;97.30;;;;;;5063961;28;20176;-89
2024/02/06 11:58:25;;;;;;;0.80;0.70;;;10.80;97.30;;;;;;5061951;28;20418;-85
2024/02/06 12:00:52;;;;;;;1.47;1.37;;;10.70;97.30;;;;;;5063441;28;20828;-87
2024/02/06 12:03:17;;;;;;;1.20;1.10;;;10.70;97.30;;;;;;5060305;28;20426;-89
2024/02/06 12:05:43;;;;;;;0.90;0.80;;;10.70;97.30;;;;;;5062788;28;20418;-86
2024/02/06 12:08:10;;;;;;;2.23;1.73;;;10.70;97.30;;;;;;5069631;28;20237;-86
2024/02/06 12:10:36;;;;;;;0.97;0.87;;;10.70;97.30;;;;;;5061601;28;20179;-85
2024/02/06 12:13:06;;;;;;;0.90;0.80;;;10.70;97.30;;;;;;5060907;28;20437;-86
2024/02/06 12:15:36;;;;;;;1.00;0.90;;;10.70;97.30;;;;;;5058553;28;20187;-84
2024/02/06 12:18:06;;;;;;;6.93;1.07;;;10.70;97.30;;;;;;5061841;28;20923;-85
2024/02/06 12:20:33;;;;;;;1.00;0.90;;;10.70;97.30;;;;;;5063908;28;20453;-84
2024/02/06 12:23:05;;;;;;;0.90;0.80;;;10.70;97.30;;;;;;5050169;28;20446;-86
2024/02/06 12:25:31;;;;;;;2.30;1.57;;;10.70;97.30;;;;;;5048996;28;20406;-86
2024/02/06 12:28:02;;;;;;;0.80;0.70;;;10.60;97.30;;;;;;5051002;28;20437;-88
2024/02/06 12:30:29;;;;;;;0.90;0.80;;;10.70;97.30;;;;;;5048539;28;20418;-88
2024/02/06 12:32:58;;;;;;;1.67;1.57;;;10.60;97.30;;;;;;5059320;28;20553;-89
2024/02/06 12:35:24;;;;;;;1.47;1.37;;;10.60;97.30;;;;;;5064397;28;20422;-88
2024/02/06 12:37:49;;;;;;;4.53;1.30;;;10.60;97.30;;;;;;5056143;28;20448;-88
2024/02/06 12:40:19;;;;;;;1.60;1.43;;;10.70;97.30;;;;;;5051264;28;20485;-88
2024/02/06 12:42:48;;;;;;;1.07;0.97;;;10.70;97.30;;;;;;5059143;28;20203;-89
2024/02/06 12:45:16;;;;;;;0.80;0.70;;;10.70;97.30;;;;;;5058361;28;20419;-89
2024/02/06 12:47:43;;;;;;;1.30;1.20;;;10.70;97.30;;;;;;5055780;28;20421;-89
2024/02/06 12:50:11;;;;;;;1.60;1.50;;;10.70;97.30;;;;;;5053061;28;20931;-91
2024/02/06 12:52:38;;;;;;;1.30;1.20;;;10.70;97.30;;;;;;5057560;28;20457;-88
2024/02/06 12:55:04;;;;;;;0.90;0.80;;;10.60;97.30;;;;;;5052014;28;20429;-90
2024/02/06 12:57:29;;;;;;;0.90;0.80;;;10.60;97.30;;;;;;5052447;28;20433;-88
2024/02/06 12:59:55;;;;;;;1.43;1.33;;;10.60;97.30;;;;;;5051461;28;20207;-87
2024/02/06 13:02:21;;;;;;;0.87;0.77;;;10.60;97.30;;;;;;5051499;28;20630;-88
2024/02/06 13:04:46;;;;;;;0.90;0.80;;;10.60;97.30;;;;;;5052347;28;20187;-86
2024/02/06 13:07:19;;;;;;;1.37;1.27;;;10.60;97.30;;;;;;5048768;28;20450;-89
2024/02/06 13:09:45;;;;;;;1.57;1.07;;;10.60;97.30;;;;;;5051346;28;20646;-89
2024/02/06 13:12:11;;;;;;;1.33;1.23;;;10.60;97.30;;;;;;5060015;28;20441;-88
2024/02/06 13:14:36;;;;;;;1.00;0.90;;;10.50;97.30;;;;;;5054519;28;20175;-89
2024/02/06 13:17:03;;;;;;;0.90;0.90;;;10.60;97.30;;;;;;5061212;28;20179;-89
2024/02/06 13:19:29;;;;;;;0.87;0.83;;;10.60;97.30;;;;;;5047130;28;20257;-89
2024/02/06 13:21:58;;;;;;;1.47;1.37;;;10.70;97.30;;;;;;5059323;28;20861;-90
2024/02/06 13:24:27;;;;;;;0.90;0.80;;;10.70;97.30;;;;;;5051755;28;20478;-88
2024/02/06 13:26:53;;;;;;;1.27;1.17;;;10.70;97.30;;;;;;5052081;28;20452;-87
2024/02/06 13:29:19;;;;;;;1.83;1.73;;;10.80;97.30;;;;;;5068311;28;20776;-89
2024/02/06 13:31:44;;;;;;;1.10;1.00;;;10.80;97.30;;;;;;5062902;28;20642;-87
2024/02/06 13:34:10;;;;;;;1.10;1.00;;;10.90;97.30;;;;;;5050541;28;20762;-87
2024/02/06 13:36:36;;;;;;;0.93;0.83;;;10.90;97.30;;;;;;5057414;28;20656;-88
2024/02/06 13:39:06;;;;;;;1.27;1.17;;;10.90;97.30;;;;;;5049868;28;20199;-85
2024/02/06 13:41:32;;;;;;;1.00;0.90;;;10.80;97.30;;;;;;5044369;28;20434;-87
2024/02/06 13:43:57;;;;;;;1.97;1.87;;;10.80;97.30;;;;;;5049894;28;20534;-86
2024/02/06 13:46:24;;;;;;;0.90;0.80;;;10.90;97.30;;;;;;5051062;28;20184;-86
2024/02/06 13:48:49;;;;;;;1.13;1.10;;;10.90;97.30;;;;;;5057620;28;20171;-86
2024/02/06 13:51:16;;;;;;;1.30;1.20;;;10.90;97.30;;;;;;5059142;28;20508;-87
2024/02/06 13:53:41;;;;;;;0.90;0.80;;;10.90;97.30;;;;;;5050760;28;20517;-86
2024/02/06 13:56:07;;;;;;;2.07;1.93;;;11.00;97.30;;;;;;5050422;28;21046;-88
2024/02/06 13:58:34;;;;;;;1.93;1.23;;;11.00;97.30;;;;;;5049775;28;20191;-88
2024/02/06 14:01:00;;;;;;;1.73;1.30;;;10.90;97.30;;;;;;5058505;28;20183;-87
2024/02/06 14:03:25;;;;;;;1.20;1.03;;;10.90;97.30;;;;;;5054743;28;20479;-88
2024/02/06 14:05:53;;;;;;;1.30;1.20;;;10.90;97.30;;;;;;5053778;28;20422;-87
2024/02/06 14:08:18;;;;;;;3.17;1.10;;;10.90;97.30;;;;;;5050202;28;20172;-87
2024/02/06 14:10:44;;;;;;;1.10;1.00;;;10.90;97.30;;;;;;5051143;28;20418;-88
2024/02/06 14:13:09;;;;;;;1.80;1.47;;;10.90;97.30;;;;;;5048306;28;20196;-86
2024/02/06 14:15:35;;;;;;;1.27;1.17;;;10.90;97.30;;;;;;5050066;28;20184;-87
2024/02/06 14:18:00;;;;;;;1.40;1.30;;;10.90;97.30;;;;;;5051138;28;20662;-87
2024/02/06 14:20:26;;;;;;;3.13;2.70;;;10.90;97.30;;;;;;5059809;28;20227;-87
2024/02/06 14:22:52;;;;;;;0.90;0.80;;;10.90;97.30;;;;;;5057386;28;20235;-87
2024/02/06 14:25:18;;;;;;;1.10;1.00;;;10.90;97.30;;;;;;5049897;28;20168;-87
2024/02/06 14:27:43;;;;;;;5.33;1.30;;;10.90;97.30;;;;;;5050892;28;20179;-87
2024/02/06 14:30:09;;;;;;;1.40;1.30;;;10.90;97.30;;;;;;5049042;28;20427;-87
2024/02/06 14:32:35;;;;;;;1.00;0.90;;;10.90;97.30;;;;;;5054059;28;20314;-87
2024/02/06 14:35:00;;;;;;;0.90;0.80;;;10.90;97.30;;;;;;5054071;28;20658;-88
2024/02/06 14:37:26;;;;;;;1.00;0.90;;;10.90;97.30;;;;;;5057623;28;20202;-87
2024/02/06 14:39:53;;;;;;;0.80;0.70;;;10.90;97.30;;;;;;5049788;28;20584;-88
2024/02/06 14:42:19;;;;;;;1.27;1.20;;;10.90;97.30;;;;;;5051839;28;20681;-87
2024/02/06 14:44:44;;;;;;;1.83;1.73;;;10.90;97.30;;;;;;5055050;28;20453;-88
2024/02/06 14:47:10;;;;;;;2.30;1.83;;;10.90;97.30;;;;;;5048697;28;20176;-88
2024/02/06 14:49:35;;;;;;;0.97;0.87;;;10.90;97.30;;;;;;5050622;28;20180;-88
2024/02/06 14:52:01;;;;;;;1.10;1.00;;;10.90;97.30;;;;;;5057629;28;20365;-87
2024/02/06 14:54:27;;;;;;;1.57;1.50;;;10.90;97.30;;;;;;5053042;28;20656;-87
2024/02/06 14:56:52;;;;;;;1.10;1.00;;;10.90;97.30;;;;;;5056004;28;20179;-86
2024/02/06 14:59:18;;;;;;;1.00;0.90;;;10.80;97.30;;;;;;5050801;28;20277;-87
2024/02/06 15:01:43;;;;;;;0.90;0.80;;;10.80;97.30;;;;;;5049546;28;20182;-87
2024/02/06 15:04:10;;;;;;;1.00;0.90;;;10.80;97.30;;;;;;5049221;28;20553;-87
2024/02/06 15:06:36;;;;;;;1.17;1.07;;;10.80;97.30;;;;;;5049715;28;20168;-88
2024/02/06 15:09:02;;;;;;;2.00;1.23;;;10.80;97.30;;;;;;5051008;28;20476;-85
2024/02/06 15:11:28;;;;;;;1.00;0.90;;;10.80;97.30;;;;;;5049707;28;20854;-86
2024/02/06 15:13:53;;;;;;;1.10;1.00;;;10.80;97.30;;;;;;5050906;28;20199;-86
2024/02/06 15:16:18;;;;;;;3.53;1.63;;;10.80;97.30;;;;;;5057769;28;20183;-87
2024/02/06 15:18:44;;;;;;;1.13;1.03;;;10.80;97.30;;;;;;5057916;28;20186;-86
2024/02/06 15:21:10;;;;;;;2.00;1.33;;;10.80;97.30;;;;;;5050646;28;20196;-86
2024/02/06 15:23:37;;;;;;;1.40;1.30;;;10.80;97.30;;;;;;5057017;28;20214;-86
2024/02/06 15:26:03;;;;;;;1.27;1.17;;;10.80;97.30;;;;;;5049758;28;20488;-84
2024/02/06 15:28:28;;;;;;;1.10;1.00;;;10.80;97.30;;;;;;5049800;28;20453;-86
2024/02/06 15:30:54;;;;;;;1.03;0.93;;;10.80;97.30;;;;;;5049924;28;20183;-86
2024/02/06 15:33:19;;;;;;;1.27;1.20;;;10.80;97.30;;;;;;5049618;28;20273;-87
2024/02/06 15:35:45;;;;;;;0.87;0.77;;;10.80;97.30;;;;;;5040708;28;20176;-86
2024/02/06 15:38:10;;;;;;;1.87;1.77;;;10.80;97.30;;;;;;5041264;28;20271;-86
2024/02/06 15:40:36;;;;;;;2.40;1.47;;;10.80;97.30;;;;;;5056367;28;20273;-86
2024/02/06 15:43:02;;;;;;;0.90;0.80;;;10.80;97.30;;;;;;5041252;28;20204;-86
2024/02/06 15:45:28;;;;;;;1.00;0.93;;;10.80;97.30;;;;;;5050127;28;20173;-87
2024/02/06 15:47:53;;;;;;;3.83;1.57;;;10.80;97.30;;;;;;5042849;28;20509;-86
2024/02/06 15:50:19;;;;;;;0.90;0.80;;;10.80;97.30;;;;;;5042396;28;20210;-87
2024/02/06 15:52:44;;;;;;;0.97;0.87;;;10.80;97.30;;;;;;5043706;28;20204;-86
2024/02/06 15:55:11;;;;;;;1.23;1.13;;;10.80;97.30;;;;;;5030950;28;20180;-87
2024/02/06 15:57:37;;;;;;;1.23;1.13;;;10.80;97.30;;;;;;5034046;28;20206;-87
2024/02/06 16:00:05;;;;;;;1.13;1.03;;;10.80;97.30;;;;;;5049068;28;20454;-86
2024/02/06 16:02:31;;;;;;;1.83;1.73;;;10.70;97.30;;;;;;5045571;28;20200;-86
2024/02/06 16:04:57;;;;;;;3.37;3.17;;;10.70;97.30;;;;;;5039544;28;20502;-86
2024/02/06 16:07:24;;;;;;;1.53;1.43;;;10.70;97.30;;;;;;5040310;28;20498;-86
2024/02/06 16:09:50;;;;;;;1.10;1.00;;;10.70;97.30;;;;;;5049861;28;20207;-87
2024/02/06 16:12:16;;;;;;;1.13;1.03;;;10.70;97.30;;;;;;5034414;28;20936;-86
2024/02/06 16:14:42;;;;;;;1.00;0.90;;;10.70;97.30;;;;;;5041556;28;20417;-87
2024/02/06 16:17:07;;;;;;;1.30;1.20;;;10.70;97.30;;;;;;5049197;28;20172;-87
2024/02/06 16:19:34;;;;;;;1.83;1.73;;;10.70;97.30;;;;;;5033253;28;20192;-82
2024/02/06 16:22:01;;;;;;;1.23;1.17;;;10.70;97.30;;;;;;5040674;28;20291;-86
2024/02/06 16:24:27;;;;;;;1.00;0.90;;;10.70;97.30;;;;;;5044959;28;20981;-86
2024/02/06 16:26:54;;;;;;;1.33;1.23;;;10.70;97.30;;;;;;5044613;28;20426;-85
2024/02/06 16:29:20;;;;;;;2.00;1.17;;;10.70;97.30;;;;;;5053519;28;20812;-84
2024/02/06 16:31:45;;;;;;;2.00;1.17;;;10.70;97.30;;;;;;5049805;28;20421;-86
2024/02/06 16:34:11;;;;;;;1.23;1.10;;;10.70;97.30;;;;;;5049172;28;20422;-86
2024/02/06 16:36:37;;;;;;;1.77;1.67;;;10.60;97.30;;;;;;5046180;28;20207;-82
2024/02/06 16:39:04;;;;;;;1.30;1.17;;;10.60;97.30;;;;;;5047187;28;20240;-86
2024/02/06 16:41:35;;;;;;;1.20;1.10;;;10.60;97.30;;;;;;5049010;28;20187;-80
2024/02/06 16:44:04;;;;;;;1.87;1.07;;;10.60;97.30;;;;;;5044010;28;20422;-85
2024/02/06 16:46:29;;;;;;;1.00;0.90;;;10.60;97.30;;;;;;5050572;28;20422;-86
2024/02/06 16:48:56;;;;;;;1.20;1.10;;;10.60;97.30;;;;;;5055119;28;20787;-86
2024/02/06 16:51:21;;;;;;;1.00;0.90;;;10.60;97.30;;;;;;5055515;28;20172;-85
2024/02/06 16:53:47;;;;;;;0.97;0.97;;;10.60;97.30;;;;;;5041048;28;20438;-86
2024/02/06 16:56:13;;;;;;;1.73;1.00;;;10.60;97.30;;;;;;5042654;28;20180;-86
2024/02/06 16:58:38;;;;;;;1.40;1.30;;;10.60;97.30;;;;;;5036924;28;20565;-85
2024/02/06 17:01:04;;;;;;;1.67;1.30;;;10.70;97.30;;;;;;5037981;28;20207;-86
2024/02/06 17:03:29;;;;;;;4.93;2.50;;;10.60;97.30;;;;;;5033362;28;20196;-88
2024/02/06 17:05:55;;;;;;;1.00;0.90;;;10.60;97.30;;;;;;5044411;28;20183;-87
2024/02/06 17:08:21;;;;;;;4.50;3.17;;;10.60;97.30;;;;;;5046072;28;20274;-87
2024/02/06 17:10:46;;;;;;;1.90;1.50;;;10.60;97.30;;;;;;5046926;28;20263;-87
2024/02/06 17:13:12;;;;;;;1.20;0.87;;;10.60;97.30;;;;;;5048180;28;20685;-86
2024/02/06 17:15:39;;;;;;;0.90;0.80;;;10.60;97.30;;;;;;5046013;28;20252;-87
2024/02/06 17:18:05;;;;;;;1.67;1.57;;;10.60;97.30;;;;;;5048366;28;20180;-86
2024/02/06 17:20:31;;;;;;;1.53;1.17;;;10.60;97.30;;;;;;5042133;28;20450;-87
2024/02/06 17:22:56;;;;;;;0.90;0.80;;;10.60;97.30;;;;;;5049805;28;20486;-88
2024/02/06 17:25:22;;;;;;;1.40;1.30;;;10.60;97.30;;;;;;5043413;28;20654;-87
2024/02/06 17:27:48;;;;;;;0.97;0.87;;;10.60;97.30;;;;;;5046756;28;20195;-87
2024/02/06 17:30:14;;;;;;;1.73;1.53;;;10.60;97.30;;;;;;5051071;28;20186;-86
2024/02/06 17:32:41;;;;;;;0.97;0.87;;;10.60;97.30;;;;;;5039957;28;20553;-88
2024/02/06 17:35:06;;;;;;;1.07;1.00;;;10.60;97.30;;;;;;5047800;28;20432;-86
2024/02/06 17:37:32;;;;;;;1.60;1.50;;;10.70;97.30;;;;;;5050726;28;20426;-88
2024/02/06 17:39:58;;;;;;;1.53;1.20;;;10.70;97.30;;;;;;5048215;28;20299;-88
2024/02/06 17:42:23;;;;;;;1.50;1.40;;;10.70;97.30;;;;;;5051188;28;20653;-86
2024/02/06 17:44:49;;;;;;;0.90;0.80;;;10.70;97.30;;;;;;5044156;28;20539;-88
2024/02/06 17:47:16;;;;;;;0.90;0.80;;;10.70;97.30;;;;;;5038436;28;20196;-86